JBU32 EHAM-KBOS
Flight info
| Callsign | JBU32 |
|---|---|
| Flight time | N/A |
| Altitude | 34000 |
| Route | BERGI L60 OTBED DCT ABLUC DCT OZRAT DCT WETFI DCT ASKUP DCT REVNU DCT ADBUS DCT VENER/M078F350 NATE RIKAL/N0458F360 N572A TOPPS DCT AJJAY OOSHN5 |
| Aircraft | A21N/M-SDE2E3FGHIRWXY/LB1 |
Departure
| Time | N/A |
|---|---|
| Airport | Amsterdam Airport Schiphol (EHAM) |
Arrival
| Time | 2026-05-03 21:14 |
|---|---|
| Airport | Boston Logan International Airport (KBOS) |
| Time | Latitude | Longitude | Altitude | Speed | Heading |
|---|---|---|---|---|---|
| 2026-05-03 20:50 | 43.49434 | -69.70790 | 31713 ft | 440 kts | 200° |
| 2026-05-03 20:51 | 43.43608 | -69.73402 | 31720 ft | 440 kts | 200° |
| 2026-05-03 20:51 | 43.37793 | -69.76013 | 31722 ft | 438 kts | 200° |
| 2026-05-03 20:52 | 43.32015 | -69.78603 | 31720 ft | 436 kts | 201° |
| 2026-05-03 20:52 | 43.26243 | -69.81183 | 31715 ft | 436 kts | 200° |
| 2026-05-03 20:53 | 43.20515 | -69.83731 | 31721 ft | 433 kts | 200° |
| 2026-05-03 20:53 | 43.17665 | -69.84999 | 29926 ft | 431 kts | 199° |
| 2026-05-03 20:53 | 43.14779 | -69.86284 | 29773 ft | 442 kts | 201° |
| 2026-05-03 20:53 | 43.11828 | -69.87599 | 28445 ft | 448 kts | 201° |
| 2026-05-03 20:54 | 43.08867 | -69.88913 | 27494 ft | 445 kts | 201° |
| 2026-05-03 20:54 | 43.03017 | -69.91502 | 25897 ft | 438 kts | 201° |
| 2026-05-03 20:54 | 43.00132 | -69.92776 | 25174 ft | 434 kts | 201° |
| 2026-05-03 20:55 | 42.97264 | -69.94043 | 24474 ft | 430 kts | 201° |
| 2026-05-03 20:55 | 42.94425 | -69.95296 | 23776 ft | 427 kts | 201° |
| 2026-05-03 20:55 | 42.91607 | -69.96536 | 23028 ft | 424 kts | 201° |
| 2026-05-03 20:55 | 42.88809 | -69.97768 | 22240 ft | 420 kts | 201° |
| 2026-05-03 20:56 | 42.86036 | -69.98991 | 21467 ft | 417 kts | 201° |
| 2026-05-03 20:56 | 42.83284 | -70.00204 | 20733 ft | 413 kts | 201° |
| 2026-05-03 20:56 | 42.80601 | -70.01386 | 20049 ft | 408 kts | 201° |
| 2026-05-03 20:56 | 42.77910 | -70.02570 | 19408 ft | 404 kts | 201° |
| 2026-05-03 20:57 | 42.75256 | -70.03779 | 18795 ft | 400 kts | 203° |
| 2026-05-03 20:57 | 42.72644 | -70.05062 | 18187 ft | 398 kts | 204° |
| 2026-05-03 20:57 | 42.70044 | -70.06349 | 17547 ft | 397 kts | 204° |
| 2026-05-03 20:57 | 42.67491 | -70.07756 | 16891 ft | 393 kts | 211° |
| 2026-05-03 20:58 | 42.65295 | -70.09872 | 16251 ft | 384 kts | 227° |
| 2026-05-03 20:58 | 42.63688 | -70.12685 | 15664 ft | 374 kts | 244° |
| 2026-05-03 20:58 | 42.62555 | -70.15834 | 15105 ft | 370 kts | 249° |
| 2026-05-03 20:58 | 42.61500 | -70.19009 | 14526 ft | 368 kts | 249° |
| 2026-05-03 20:59 | 42.60444 | -70.22173 | 13902 ft | 368 kts | 250° |
| 2026-05-03 20:59 | 42.59556 | -70.25376 | 13454 ft | 356 kts | 255° |
| 2026-05-03 20:59 | 42.58778 | -70.28479 | 13160 ft | 340 kts | 255° |
| 2026-05-03 20:59 | 42.58028 | -70.31454 | 12938 ft | 325 kts | 255° |
| 2026-05-03 21:00 | 42.57312 | -70.34282 | 12740 ft | 309 kts | 255° |
| 2026-05-03 21:00 | 42.56858 | -70.36078 | 12631 ft | 299 kts | 255° |
| 2026-05-03 21:00 | 42.55983 | -70.39541 | 12352 ft | 282 kts | 255° |
| 2026-05-03 21:00 | 42.55351 | -70.42040 | 11909 ft | 278 kts | 256° |
| 2026-05-03 21:01 | 42.54727 | -70.44502 | 11516 ft | 274 kts | 255° |
| 2026-05-03 21:01 | 42.54117 | -70.46918 | 11170 ft | 274 kts | 256° |
| 2026-05-03 21:01 | 42.53501 | -70.49352 | 10851 ft | 272 kts | 255° |
| 2026-05-03 21:01 | 42.52889 | -70.51760 | 10536 ft | 269 kts | 256° |
| 2026-05-03 21:02 | 42.52319 | -70.54157 | 10221 ft | 266 kts | 257° |
| 2026-05-03 21:02 | 42.51777 | -70.56540 | 9924 ft | 263 kts | 257° |
| 2026-05-03 21:02 | 42.51242 | -70.58899 | 9627 ft | 260 kts | 257° |
| 2026-05-03 21:02 | 42.50710 | -70.61224 | 9314 ft | 257 kts | 257° |
| 2026-05-03 21:03 | 42.50185 | -70.63512 | 9015 ft | 253 kts | 257° |
| 2026-05-03 21:03 | 42.49668 | -70.65768 | 8725 ft | 248 kts | 257° |
| 2026-05-03 21:03 | 42.49159 | -70.67978 | 8443 ft | 243 kts | 257° |
| 2026-05-03 21:03 | 42.48654 | -70.70172 | 8167 ft | 244 kts | 257° |
| 2026-05-03 21:04 | 42.48147 | -70.72363 | 7892 ft | 243 kts | 257° |
| 2026-05-03 21:04 | 42.47644 | -70.74542 | 7619 ft | 242 kts | 257° |
| 2026-05-03 21:04 | 42.47148 | -70.76679 | 7348 ft | 240 kts | 257° |
| 2026-05-03 21:04 | 42.46648 | -70.78835 | 7075 ft | 239 kts | 257° |
| 2026-05-03 21:05 | 42.46093 | -70.80959 | 6806 ft | 242 kts | 249° |
| 2026-05-03 21:05 | 42.45032 | -70.82755 | 6538 ft | 252 kts | 222° |
| 2026-05-03 21:05 | 42.43419 | -70.83782 | 6290 ft | 260 kts | 203° |
| 2026-05-03 21:05 | 42.41680 | -70.84476 | 6015 ft | 260 kts | 201° |
| 2026-05-03 21:06 | 42.39944 | -70.85154 | 5720 ft | 260 kts | 201° |
| 2026-05-03 21:06 | 42.38160 | -70.85435 | 5471 ft | 260 kts | 178° |
| 2026-05-03 21:06 | 42.36414 | -70.84919 | 5283 ft | 254 kts | 168° |
| 2026-05-03 21:06 | 42.34728 | -70.84283 | 5091 ft | 249 kts | 167° |
| 2026-05-03 21:07 | 42.33133 | -70.83287 | 4969 ft | 259 kts | 143° |
| 2026-05-03 21:07 | 42.31824 | -70.81600 | 4980 ft | 260 kts | 135° |
| 2026-05-03 21:07 | 42.30563 | -70.79844 | 4996 ft | 260 kts | 135° |
| 2026-05-03 21:07 | 42.29311 | -70.78127 | 5001 ft | 252 kts | 135° |
| 2026-05-03 21:08 | 42.28074 | -70.76446 | 4999 ft | 252 kts | 136° |
| 2026-05-03 21:08 | 42.26786 | -70.74860 | 4854 ft | 248 kts | 151° |
| 2026-05-03 21:08 | 42.25183 | -70.74236 | 4433 ft | 238 kts | 188° |
| 2026-05-03 21:08 | 42.23718 | -70.74915 | 4033 ft | 220 kts | 226° |
| 2026-05-03 21:09 | 42.22932 | -70.76545 | 3709 ft | 203 kts | 264° |
| 2026-05-03 21:09 | 42.23111 | -70.78340 | 3463 ft | 194 kts | 296° |
| 2026-05-03 21:09 | 42.23608 | -70.80033 | 3225 ft | 195 kts | 288° |
| 2026-05-03 21:09 | 42.23920 | -70.81812 | 3013 ft | 194 kts | 287° |
| 2026-05-03 21:10 | 42.24371 | -70.83518 | 2971 ft | 193 kts | 298° |
| 2026-05-03 21:10 | 42.25083 | -70.85043 | 2925 ft | 193 kts | 308° |
| 2026-05-03 21:10 | 42.25958 | -70.86405 | 2725 ft | 192 kts | 313° |
| 2026-05-03 21:10 | 42.26899 | -70.87677 | 2473 ft | 191 kts | 314° |
| 2026-05-03 21:11 | 42.27838 | -70.88937 | 2203 ft | 190 kts | 314° |
| 2026-05-03 21:11 | 42.28775 | -70.90191 | 1934 ft | 190 kts | 314° |
| 2026-05-03 21:11 | 42.29712 | -70.91446 | 1676 ft | 189 kts | 314° |
| 2026-05-03 21:11 | 42.30613 | -70.92652 | 1409 ft | 175 kts | 314° |
| 2026-05-03 21:12 | 42.31438 | -70.93755 | 1208 ft | 159 kts | 314° |
| 2026-05-03 21:12 | 42.32159 | -70.94721 | 1039 ft | 129 kts | 314° |
| 2026-05-03 21:12 | 42.32734 | -70.95491 | 826 ft | 111 kts | 314° |
| 2026-05-03 21:12 | 42.33286 | -70.96231 | 657 ft | 112 kts | 315° |
| 2026-05-03 21:13 | 42.33836 | -70.96975 | 483 ft | 111 kts | 314° |
| 2026-05-03 21:13 | 42.34391 | -70.97720 | 349 ft | 114 kts | 313° |
| 2026-05-03 21:13 | 42.34956 | -70.98473 | 208 ft | 115 kts | 314° |
| 2026-05-03 21:13 | 42.35523 | -70.99244 | 57 ft | 116 kts | 313° |
| 2026-05-03 21:14 | 42.36073 | -70.99980 | 29 ft | 101 kts | 316° |
| 2026-05-03 21:14 | 42.36453 | -71.00489 | 31 ft | 55 kts | 315° |
| 2026-05-03 21:14 | 42.36695 | -71.00813 | 31 ft | 46 kts | 314° |
| 2026-05-03 21:14 | 42.36904 | -71.01090 | 31 ft | 22 kts | 313° |
| 2026-05-03 21:15 | 42.36931 | -71.01224 | 31 ft | 17 kts | 248° |
| 2026-05-03 21:15 | 42.36937 | -71.01346 | 31 ft | 15 kts | 316° |
| 2026-05-03 21:15 | 42.37015 | -71.01448 | 31 ft | 11 kts | 309° |
| 2026-05-03 21:15 | 42.37076 | -71.01535 | 31 ft | 14 kts | 318° |
| 2026-05-03 21:16 | 42.37146 | -71.01628 | 31 ft | 11 kts | 296° |
| 2026-05-03 21:16 | 42.37100 | -71.01685 | 31 ft | 13 kts | 154° |
| 2026-05-03 21:16 | 42.37027 | -71.01596 | 31 ft | 11 kts | 139° |
| 2026-05-03 21:16 | 42.36948 | -71.01619 | 31 ft | 14 kts | 214° |
| 2026-05-03 21:17 | 42.36883 | -71.01679 | 31 ft | 7 kts | 214° |
| 2026-05-03 21:17 | 42.36858 | -71.01693 | 31 ft | 4 kts | 189° |
| 2026-05-03 21:17 | 42.36839 | -71.01717 | 31 ft | 4 kts | 277° |
| 2026-05-03 21:17 | 42.36858 | -71.01758 | 31 ft | 3 kts | 280° |
| 2026-05-03 21:18 | 42.36858 | -71.01787 | 31 ft | 1 kts | 266° |
| 2026-05-03 21:18 | 42.36858 | -71.01788 | 31 ft | 0 kts | 266° |